sensor_id;sensor_type;location;lat;lon;timestamp;P1;durP1;ratioP1;P2;durP2;ratioP2
69327;SDS011;56472;52.114;5.492;2023-03-01T00:01:10;12.05;;;9.25;;
69327;SDS011;56472;52.114;5.492;2023-03-01T00:03:47;13.75;;;9.13;;
69327;SDS011;56472;52.114;5.492;2023-03-01T00:06:15;16.38;;;9.55;;
69327;SDS011;56472;52.114;5.492;2023-03-01T00:08:43;19.45;;;9.65;;
69327;SDS011;56472;52.114;5.492;2023-03-01T00:11:14;13.63;;;9.55;;
69327;SDS011;56472;52.114;5.492;2023-03-01T00:13:46;14.82;;;8.95;;
69327;SDS011;56472;52.114;5.492;2023-03-01T00:16:15;15.85;;;9.27;;
69327;SDS011;56472;52.114;5.492;2023-03-01T00:18:44;14.93;;;9.40;;
69327;SDS011;56472;52.114;5.492;2023-03-01T00:21:12;15.55;;;9.35;;
69327;SDS011;56472;52.114;5.492;2023-03-01T00:23:38;17.90;;;9.40;;
69327;SDS011;56472;52.114;5.492;2023-03-01T00:26:06;15.73;;;9.40;;
69327;SDS011;56472;52.114;5.492;2023-03-01T00:28:38;15.07;;;9.60;;
69327;SDS011;56472;52.114;5.492;2023-03-01T00:31:08;13.77;;;9.75;;
69327;SDS011;56472;52.114;5.492;2023-03-01T00:33:38;15.32;;;10.13;;
69327;SDS011;56472;52.114;5.492;2023-03-01T00:36:05;14.38;;;9.93;;
69327;SDS011;56472;52.114;5.492;2023-03-01T00:38:36;21.83;;;9.82;;
69327;SDS011;56472;52.114;5.492;2023-03-01T00:41:08;16.90;;;10.07;;
69327;SDS011;56472;52.114;5.492;2023-03-01T00:43:39;11.82;;;8.98;;
69327;SDS011;56472;52.114;5.492;2023-03-01T00:46:08;16.65;;;9.63;;
69327;SDS011;56472;52.114;5.492;2023-03-01T00:48:37;15.98;;;9.30;;
69327;SDS011;56472;52.114;5.492;2023-03-01T00:51:05;16.88;;;8.90;;
69327;SDS011;56472;52.114;5.492;2023-03-01T00:53:34;17.55;;;10.50;;
69327;SDS011;56472;52.114;5.492;2023-03-01T00:56:02;13.70;;;9.25;;
69327;SDS011;56472;52.114;5.492;2023-03-01T00:58:31;15.40;;;10.02;;
69327;SDS011;56472;52.114;5.492;2023-03-01T01:00:58;15.38;;;10.57;;
69327;SDS011;56472;52.114;5.492;2023-03-01T01:03:25;16.27;;;9.70;;
69327;SDS011;56472;52.114;5.492;2023-03-01T01:05:52;17.85;;;9.10;;
69327;SDS011;56472;52.114;5.492;2023-03-01T01:08:20;17.77;;;9.77;;
69327;SDS011;56472;52.114;5.492;2023-03-01T01:10:47;17.75;;;9.70;;
69327;SDS011;56472;52.114;5.492;2023-03-01T01:13:14;14.35;;;10.15;;
69327;SDS011;56472;52.114;5.492;2023-03-01T01:15:41;21.05;;;10.60;;
69327;SDS011;56472;52.114;5.492;2023-03-01T01:18:08;18.52;;;9.85;;
69327;SDS011;56472;52.114;5.492;2023-03-01T01:20:35;16.52;;;10.50;;
69327;SDS011;56472;52.114;5.492;2023-03-01T01:23:04;15.13;;;10.35;;
69327;SDS011;56472;52.114;5.492;2023-03-01T01:25:34;15.02;;;10.25;;
69327;SDS011;56472;52.114;5.492;2023-03-01T01:28:02;15.05;;;10.23;;
69327;SDS011;56472;52.114;5.492;2023-03-01T01:30:29;15.05;;;10.13;;
69327;SDS011;56472;52.114;5.492;2023-03-01T01:32:56;18.02;;;11.23;;
69327;SDS011;56472;52.114;5.492;2023-03-01T01:35:23;17.05;;;11.02;;
69327;SDS011;56472;52.114;5.492;2023-03-01T01:37:50;17.50;;;10.45;;
69327;SDS011;56472;52.114;5.492;2023-03-01T01:40:17;16.30;;;10.43;;
69327;SDS011;56472;52.114;5.492;2023-03-01T01:42:44;15.88;;;10.40;;
69327;SDS011;56472;52.114;5.492;2023-03-01T01:45:24;16.45;;;10.68;;
69327;SDS011;56472;52.114;5.492;2023-03-01T01:48:04;15.45;;;10.38;;
69327;SDS011;56472;52.114;5.492;2023-03-01T01:50:36;16.38;;;11.02;;
69327;SDS011;56472;52.114;5.492;2023-03-01T01:53:10;25.85;;;11.15;;
69327;SDS011;56472;52.114;5.492;2023-03-01T01:55:44;16.20;;;10.85;;
69327;SDS011;56472;52.114;5.492;2023-03-01T01:58:14;17.15;;;10.43;;
69327;SDS011;56472;52.114;5.492;2023-03-01T02:00:44;19.48;;;12.02;;
69327;SDS011;56472;52.114;5.492;2023-03-01T02:03:13;20.67;;;11.35;;
69327;SDS011;56472;52.114;5.492;2023-03-01T02:05:52;19.75;;;12.55;;
69327;SDS011;56472;52.114;5.492;2023-03-01T02:08:27;18.98;;;10.82;;
69327;SDS011;56472;52.114;5.492;2023-03-01T02:10:57;16.10;;;11.38;;
69327;SDS011;56472;52.114;5.492;2023-03-01T02:13:26;18.90;;;12.50;;
69327;SDS011;56472;52.114;5.492;2023-03-01T02:15:54;19.65;;;12.30;;
69327;SDS011;56472;52.114;5.492;2023-03-01T02:18:21;18.50;;;11.98;;
69327;SDS011;56472;52.114;5.492;2023-03-01T02:23:39;18.15;;;11.98;;
69327;SDS011;56472;52.114;5.492;2023-03-01T02:28:58;21.45;;;12.18;;
69327;SDS011;56472;52.114;5.492;2023-03-01T02:31:25;20.35;;;13.00;;
69327;SDS011;56472;52.114;5.492;2023-03-01T02:34:15;21.65;;;12.82;;
69327;SDS011;56472;52.114;5.492;2023-03-01T02:39:15;24.50;;;13.80;;
69327;SDS011;56472;52.114;5.492;2023-03-01T02:41:47;15.52;;;11.63;;
69327;SDS011;56472;52.114;5.492;2023-03-01T02:44:17;18.67;;;12.00;;
69327;SDS011;56472;52.114;5.492;2023-03-01T02:46:51;15.63;;;11.27;;
69327;SDS011;56472;52.114;5.492;2023-03-01T02:57:25;19.98;;;11.32;;
69327;SDS011;56472;52.114;5.492;2023-03-01T02:59:54;23.48;;;12.90;;
69327;SDS011;56472;52.114;5.492;2023-03-01T03:02:26;17.15;;;12.27;;
69327;SDS011;56472;52.114;5.492;2023-03-01T03:05:21;23.90;;;12.57;;
69327;SDS011;56472;52.114;5.492;2023-03-01T03:07:56;19.02;;;12.50;;
69327;SDS011;56472;52.114;5.492;2023-03-01T03:10:29;18.38;;;11.55;;
69327;SDS011;56472;52.114;5.492;2023-03-01T03:13:03;20.85;;;11.55;;
69327;SDS011;56472;52.114;5.492;2023-03-01T03:15:33;16.58;;;10.82;;
69327;SDS011;56472;52.114;5.492;2023-03-01T03:18:03;16.85;;;11.65;;
69327;SDS011;56472;52.114;5.492;2023-03-01T03:20:32;21.40;;;12.13;;
69327;SDS011;56472;52.114;5.492;2023-03-01T03:23:00;23.75;;;12.35;;
69327;SDS011;56472;52.114;5.492;2023-03-01T03:25:27;17.10;;;11.23;;
69327;SDS011;56472;52.114;5.492;2023-03-01T03:27:55;19.70;;;11.30;;
69327;SDS011;56472;52.114;5.492;2023-03-01T03:30:25;16.33;;;11.40;;
69327;SDS011;56472;52.114;5.492;2023-03-01T03:32:57;17.48;;;11.57;;
69327;SDS011;56472;52.114;5.492;2023-03-01T03:35:26;18.77;;;13.05;;
69327;SDS011;56472;52.114;5.492;2023-03-01T03:37:57;24.98;;;13.43;;
69327;SDS011;56472;52.114;5.492;2023-03-01T03:40:33;19.10;;;12.05;;
69327;SDS011;56472;52.114;5.492;2023-03-01T03:43:01;23.83;;;12.65;;
69327;SDS011;56472;52.114;5.492;2023-03-01T03:45:29;19.60;;;11.77;;
69327;SDS011;56472;52.114;5.492;2023-03-01T03:47:59;19.25;;;11.98;;
69327;SDS011;56472;52.114;5.492;2023-03-01T03:50:27;25.42;;;12.43;;
69327;SDS011;56472;52.114;5.492;2023-03-01T03:52:54;18.00;;;12.35;;
69327;SDS011;56472;52.114;5.492;2023-03-01T03:55:21;19.83;;;12.30;;
69327;SDS011;56472;52.114;5.492;2023-03-01T03:57:48;26.20;;;12.43;;
69327;SDS011;56472;52.114;5.492;2023-03-01T04:00:18;27.00;;;13.05;;
69327;SDS011;56472;52.114;5.492;2023-03-01T04:02:47;20.40;;;13.00;;
69327;SDS011;56472;52.114;5.492;2023-03-01T04:05:15;18.70;;;11.95;;
69327;SDS011;56472;52.114;5.492;2023-03-01T04:07:44;17.67;;;12.63;;
69327;SDS011;56472;52.114;5.492;2023-03-01T04:10:13;20.73;;;13.73;;
69327;SDS011;56472;52.114;5.492;2023-03-01T04:12:43;20.05;;;13.00;;
69327;SDS011;56472;52.114;5.492;2023-03-01T04:15:11;19.50;;;12.10;;
69327;SDS011;56472;52.114;5.492;2023-03-01T04:17:42;20.77;;;12.27;;
69327;SDS011;56472;52.114;5.492;2023-03-01T04:20:10;20.58;;;12.50;;
69327;SDS011;56472;52.114;5.492;2023-03-01T04:22:58;21.30;;;12.95;;
69327;SDS011;56472;52.114;5.492;2023-03-01T04:25:37;21.20;;;12.93;;
69327;SDS011;56472;52.114;5.492;2023-03-01T04:28:25;17.83;;;12.73;;
69327;SDS011;56472;52.114;5.492;2023-03-01T04:30:54;20.88;;;12.95;;
69327;SDS011;56472;52.114;5.492;2023-03-01T04:33:22;20.05;;;13.50;;
69327;SDS011;56472;52.114;5.492;2023-03-01T04:35:50;22.05;;;13.43;;
69327;SDS011;56472;52.114;5.492;2023-03-01T04:38:18;26.23;;;14.05;;
69327;SDS011;56472;52.114;5.492;2023-03-01T04:40:47;23.02;;;13.52;;
69327;SDS011;56472;52.114;5.492;2023-03-01T04:43:14;23.10;;;13.07;;
69327;SDS011;56472;52.114;5.492;2023-03-01T04:45:41;24.52;;;13.90;;
69327;SDS011;56472;52.114;5.492;2023-03-01T04:48:08;19.15;;;13.45;;
69327;SDS011;56472;52.114;5.492;2023-03-01T04:50:35;22.05;;;13.35;;
69327;SDS011;56472;52.114;5.492;2023-03-01T04:53:02;21.27;;;13.60;;
69327;SDS011;56472;52.114;5.492;2023-03-01T04:55:29;20.60;;;13.18;;
69327;SDS011;56472;52.114;5.492;2023-03-01T04:57:57;21.10;;;12.80;;
69327;SDS011;56472;52.114;5.492;2023-03-01T05:00:25;19.17;;;12.77;;
69327;SDS011;56472;52.114;5.492;2023-03-01T05:02:53;16.55;;;12.13;;
69327;SDS011;56472;52.114;5.492;2023-03-01T05:08:06;22.80;;;12.73;;
69327;SDS011;56472;52.114;5.492;2023-03-01T05:10:35;17.20;;;11.20;;
69327;SDS011;56472;52.114;5.492;2023-03-01T05:13:03;18.98;;;12.23;;
69327;SDS011;56472;52.114;5.492;2023-03-01T05:15:31;20.05;;;12.52;;
69327;SDS011;56472;52.114;5.492;2023-03-01T05:17:59;22.15;;;12.73;;
69327;SDS011;56472;52.114;5.492;2023-03-01T05:20:27;19.17;;;11.95;;
69327;SDS011;56472;52.114;5.492;2023-03-01T05:22:57;19.45;;;12.38;;
69327;SDS011;56472;52.114;5.492;2023-03-01T05:25:25;18.88;;;11.50;;
69327;SDS011;56472;52.114;5.492;2023-03-01T05:27:52;20.55;;;13.02;;
69327;SDS011;56472;52.114;5.492;2023-03-01T05:30:19;22.55;;;12.30;;
69327;SDS011;56472;52.114;5.492;2023-03-01T05:32:48;20.15;;;13.05;;
69327;SDS011;56472;52.114;5.492;2023-03-01T05:35:22;21.95;;;13.60;;
69327;SDS011;56472;52.114;5.492;2023-03-01T05:37:49;25.08;;;12.48;;
69327;SDS011;56472;52.114;5.492;2023-03-01T05:40:20;20.75;;;12.93;;
69327;SDS011;56472;52.114;5.492;2023-03-01T05:42:52;22.83;;;12.48;;
69327;SDS011;56472;52.114;5.492;2023-03-01T05:45:21;25.48;;;14.38;;
69327;SDS011;56472;52.114;5.492;2023-03-01T05:47:49;21.15;;;12.45;;
69327;SDS011;56472;52.114;5.492;2023-03-01T05:50:18;20.80;;;13.48;;
69327;SDS011;56472;52.114;5.492;2023-03-01T05:52:50;20.33;;;12.88;;
69327;SDS011;56472;52.114;5.492;2023-03-01T05:55:19;23.17;;;12.63;;
69327;SDS011;56472;52.114;5.492;2023-03-01T05:57:47;22.10;;;14.73;;
69327;SDS011;56472;52.114;5.492;2023-03-01T06:00:15;28.10;;;14.63;;
69327;SDS011;56472;52.114;5.492;2023-03-01T06:02:43;22.58;;;13.85;;
69327;SDS011;56472;52.114;5.492;2023-03-01T06:05:10;20.88;;;14.43;;
69327;SDS011;56472;52.114;5.492;2023-03-01T06:07:39;20.00;;;13.30;;
69327;SDS011;56472;52.114;5.492;2023-03-01T06:10:07;20.10;;;13.38;;
69327;SDS011;56472;52.114;5.492;2023-03-01T06:12:36;23.73;;;13.63;;
69327;SDS011;56472;52.114;5.492;2023-03-01T06:15:05;25.33;;;13.20;;
69327;SDS011;56472;52.114;5.492;2023-03-01T06:17:33;22.88;;;13.40;;
69327;SDS011;56472;52.114;5.492;2023-03-01T06:20:23;24.08;;;13.15;;
69327;SDS011;56472;52.114;5.492;2023-03-01T06:22:51;19.38;;;13.18;;
69327;SDS011;56472;52.114;5.492;2023-03-01T06:25:20;19.77;;;12.70;;
69327;SDS011;56472;52.114;5.492;2023-03-01T06:27:48;19.08;;;12.68;;
69327;SDS011;56472;52.114;5.492;2023-03-01T06:30:16;24.17;;;13.50;;
69327;SDS011;56472;52.114;5.492;2023-03-01T06:32:44;18.95;;;12.40;;
69327;SDS011;56472;52.114;5.492;2023-03-01T06:35:11;19.85;;;12.77;;
69327;SDS011;56472;52.114;5.492;2023-03-01T06:37:40;25.02;;;14.23;;
69327;SDS011;56472;52.114;5.492;2023-03-01T06:40:07;26.20;;;14.93;;
69327;SDS011;56472;52.114;5.492;2023-03-01T06:42:37;20.88;;;13.07;;
69327;SDS011;56472;52.114;5.492;2023-03-01T06:45:06;20.77;;;14.07;;
69327;SDS011;56472;52.114;5.492;2023-03-01T06:47:34;20.92;;;13.18;;
69327;SDS011;56472;52.114;5.492;2023-03-01T06:50:01;28.95;;;13.63;;
69327;SDS011;56472;52.114;5.492;2023-03-01T06:52:29;17.75;;;13.00;;
69327;SDS011;56472;52.114;5.492;2023-03-01T06:54:55;25.20;;;13.35;;
69327;SDS011;56472;52.114;5.492;2023-03-01T06:57:22;25.23;;;14.40;;
69327;SDS011;56472;52.114;5.492;2023-03-01T06:59:49;20.65;;;13.95;;
69327;SDS011;56472;52.114;5.492;2023-03-01T07:02:16;22.48;;;13.30;;
69327;SDS011;56472;52.114;5.492;2023-03-01T07:04:43;20.80;;;14.10;;
69327;SDS011;56472;52.114;5.492;2023-03-01T07:07:10;48.75;;;14.50;;
69327;SDS011;56472;52.114;5.492;2023-03-01T07:09:37;22.20;;;13.68;;
69327;SDS011;56472;52.114;5.492;2023-03-01T07:12:04;19.67;;;12.63;;
69327;SDS011;56472;52.114;5.492;2023-03-01T07:14:31;20.10;;;12.90;;
69327;SDS011;56472;52.114;5.492;2023-03-01T07:16:58;21.08;;;12.75;;
69327;SDS011;56472;52.114;5.492;2023-03-01T07:19:25;28.63;;;12.90;;
69327;SDS011;56472;52.114;5.492;2023-03-01T07:21:52;21.30;;;13.43;;
69327;SDS011;56472;52.114;5.492;2023-03-01T07:24:19;27.23;;;14.88;;
69327;SDS011;56472;52.114;5.492;2023-03-01T07:26:49;22.15;;;12.93;;
69327;SDS011;56472;52.114;5.492;2023-03-01T07:29:17;20.05;;;13.38;;
69327;SDS011;56472;52.114;5.492;2023-03-01T07:31:44;25.55;;;14.30;;
69327;SDS011;56472;52.114;5.492;2023-03-01T07:34:11;20.20;;;14.48;;
69327;SDS011;56472;52.114;5.492;2023-03-01T07:36:38;29.92;;;14.10;;
69327;SDS011;56472;52.114;5.492;2023-03-01T07:39:09;23.08;;;14.25;;
69327;SDS011;56472;52.114;5.492;2023-03-01T07:41:36;20.02;;;13.63;;
69327;SDS011;56472;52.114;5.492;2023-03-01T07:44:03;23.35;;;13.50;;
69327;SDS011;56472;52.114;5.492;2023-03-01T07:46:30;23.38;;;14.45;;
69327;SDS011;56472;52.114;5.492;2023-03-01T07:48:58;20.50;;;14.00;;
69327;SDS011;56472;52.114;5.492;2023-03-01T07:51:24;23.77;;;13.93;;
69327;SDS011;56472;52.114;5.492;2023-03-01T07:53:51;19.25;;;13.30;;
69327;SDS011;56472;52.114;5.492;2023-03-01T07:56:18;19.15;;;12.65;;
69327;SDS011;56472;52.114;5.492;2023-03-01T07:58:45;24.85;;;13.18;;
69327;SDS011;56472;52.114;5.492;2023-03-01T08:01:16;20.77;;;12.48;;
69327;SDS011;56472;52.114;5.492;2023-03-01T08:03:45;23.95;;;13.00;;
69327;SDS011;56472;52.114;5.492;2023-03-01T08:06:13;21.90;;;14.00;;
69327;SDS011;56472;52.114;5.492;2023-03-01T08:08:41;23.00;;;13.00;;
69327;SDS011;56472;52.114;5.492;2023-03-01T08:11:10;24.15;;;13.48;;
69327;SDS011;56472;52.114;5.492;2023-03-01T08:13:38;21.10;;;14.02;;
69327;SDS011;56472;52.114;5.492;2023-03-01T08:16:10;20.05;;;12.43;;
69327;SDS011;56472;52.114;5.492;2023-03-01T08:18:38;22.10;;;13.43;;
69327;SDS011;56472;52.114;5.492;2023-03-01T08:21:10;18.10;;;11.95;;
69327;SDS011;56472;52.114;5.492;2023-03-01T08:23:39;20.23;;;12.73;;
69327;SDS011;56472;52.114;5.492;2023-03-01T08:26:13;18.98;;;12.65;;
69327;SDS011;56472;52.114;5.492;2023-03-01T08:28:43;17.90;;;11.75;;
69327;SDS011;56472;52.114;5.492;2023-03-01T08:31:18;19.73;;;11.82;;
69327;SDS011;56472;52.114;5.492;2023-03-01T08:33:51;20.33;;;11.88;;
69327;SDS011;56472;52.114;5.492;2023-03-01T08:36:22;22.38;;;11.30;;
69327;SDS011;56472;52.114;5.492;2023-03-01T08:38:50;18.35;;;10.35;;
69327;SDS011;56472;52.114;5.492;2023-03-01T08:41:17;22.48;;;10.85;;
69327;SDS011;56472;52.114;5.492;2023-03-01T08:43:44;25.02;;;10.50;;
69327;SDS011;56472;52.114;5.492;2023-03-01T08:46:12;18.20;;;10.70;;
69327;SDS011;56472;52.114;5.492;2023-03-01T08:48:40;17.50;;;10.60;;
69327;SDS011;56472;52.114;5.492;2023-03-01T08:51:10;17.20;;;10.60;;
69327;SDS011;56472;52.114;5.492;2023-03-01T08:53:42;15.73;;;9.82;;
69327;SDS011;56472;52.114;5.492;2023-03-01T08:56:09;15.90;;;10.38;;
69327;SDS011;56472;52.114;5.492;2023-03-01T08:58:36;13.77;;;9.30;;
69327;SDS011;56472;52.114;5.492;2023-03-01T09:01:07;15.80;;;9.48;;
69327;SDS011;56472;52.114;5.492;2023-03-01T09:03:39;15.48;;;9.45;;
69327;SDS011;56472;52.114;5.492;2023-03-01T09:06:06;13.43;;;9.30;;
69327;SDS011;56472;52.114;5.492;2023-03-01T09:08:34;15.88;;;8.75;;
69327;SDS011;56472;52.114;5.492;2023-03-01T09:11:06;11.90;;;8.45;;
69327;SDS011;56472;52.114;5.492;2023-03-01T09:13:34;12.70;;;8.70;;
69327;SDS011;56472;52.114;5.492;2023-03-01T09:16:02;12.60;;;8.23;;
69327;SDS011;56472;52.114;5.492;2023-03-01T09:18:30;17.05;;;8.38;;
69327;SDS011;56472;52.114;5.492;2023-03-01T09:21:08;14.48;;;8.25;;
69327;SDS011;56472;52.114;5.492;2023-03-01T09:23:38;12.80;;;8.07;;
69327;SDS011;56472;52.114;5.492;2023-03-01T09:26:08;12.43;;;7.70;;
69327;SDS011;56472;52.114;5.492;2023-03-01T09:28:37;10.63;;;7.53;;
69327;SDS011;56472;52.114;5.492;2023-03-01T09:31:04;10.80;;;7.53;;
69327;SDS011;56472;52.114;5.492;2023-03-01T09:33:32;13.05;;;7.72;;
69327;SDS011;56472;52.114;5.492;2023-03-01T09:36:00;9.93;;;6.93;;
69327;SDS011;56472;52.114;5.492;2023-03-01T09:38:29;7.97;;;6.05;;
69327;SDS011;56472;52.114;5.492;2023-03-01T09:40:57;11.63;;;6.70;;
69327;SDS011;56472;52.114;5.492;2023-03-01T09:46:23;11.55;;;6.15;;
69327;SDS011;56472;52.114;5.492;2023-03-01T09:51:37;11.68;;;6.30;;
69327;SDS011;56472;52.114;5.492;2023-03-01T09:54:04;8.68;;;6.65;;
69327;SDS011;56472;52.114;5.492;2023-03-01T09:56:33;8.43;;;6.22;;
69327;SDS011;56472;52.114;5.492;2023-03-01T10:09:39;5.53;;;4.88;;
69327;SDS011;56472;52.114;5.492;2023-03-01T10:12:12;9.43;;;5.32;;
69327;SDS011;56472;52.114;5.492;2023-03-01T10:17:27;7.28;;;5.03;;
69327;SDS011;56472;52.114;5.492;2023-03-01T10:20:19;5.25;;;4.22;;
69327;SDS011;56472;52.114;5.492;2023-03-01T10:23:19;6.18;;;4.13;;
69327;SDS011;56472;52.114;5.492;2023-03-01T10:26:07;7.38;;;4.35;;
69327;SDS011;56472;52.114;5.492;2023-03-01T10:31:22;5.35;;;3.83;;
69327;SDS011;56472;52.114;5.492;2023-03-01T10:33:55;4.80;;;3.35;;
69327;SDS011;56472;52.114;5.492;2023-03-01T10:36:23;6.30;;;4.00;;
69327;SDS011;56472;52.114;5.492;2023-03-01T10:38:52;4.10;;;3.42;;
69327;SDS011;56472;52.114;5.492;2023-03-01T10:41:21;4.13;;;3.70;;
69327;SDS011;56472;52.114;5.492;2023-03-01T10:43:52;6.60;;;4.00;;
69327;SDS011;56472;52.114;5.492;2023-03-01T10:49:18;5.55;;;3.40;;
69327;SDS011;56472;52.114;5.492;2023-03-01T10:51:47;6.57;;;3.95;;
69327;SDS011;56472;52.114;5.492;2023-03-01T10:56:49;5.38;;;4.05;;
69327;SDS011;56472;52.114;5.492;2023-03-01T10:59:26;3.97;;;3.60;;
69327;SDS011;56472;52.114;5.492;2023-03-01T11:02:28;3.45;;;3.15;;
69327;SDS011;56472;52.114;5.492;2023-03-01T11:05:13;3.20;;;2.92;;
69327;SDS011;56472;52.114;5.492;2023-03-01T11:07:57;6.82;;;3.45;;
69327;SDS011;56472;52.114;5.492;2023-03-01T11:10:29;5.95;;;3.70;;
69327;SDS011;56472;52.114;5.492;2023-03-01T11:15:42;6.15;;;3.30;;
69327;SDS011;56472;52.114;5.492;2023-03-01T11:18:22;3.92;;;3.10;;
69327;SDS011;56472;52.114;5.492;2023-03-01T11:21:06;4.95;;;3.45;;
69327;SDS011;56472;52.114;5.492;2023-03-01T11:23:35;4.03;;;2.95;;
69327;SDS011;56472;52.114;5.492;2023-03-01T11:26:05;5.40;;;3.30;;
69327;SDS011;56472;52.114;5.492;2023-03-01T11:28:38;4.60;;;3.88;;
69327;SDS011;56472;52.114;5.492;2023-03-01T11:31:07;4.50;;;3.50;;
69327;SDS011;56472;52.114;5.492;2023-03-01T11:33:46;6.30;;;3.63;;
69327;SDS011;56472;52.114;5.492;2023-03-01T11:36:36;4.60;;;4.00;;
69327;SDS011;56472;52.114;5.492;2023-03-01T11:42:20;5.25;;;4.13;;
69327;SDS011;56472;52.114;5.492;2023-03-01T11:44:55;5.15;;;4.03;;
69327;SDS011;56472;52.114;5.492;2023-03-01T11:50:11;4.85;;;3.80;;
69327;SDS011;56472;52.114;5.492;2023-03-01T11:55:29;6.47;;;4.20;;
69327;SDS011;56472;52.114;5.492;2023-03-01T12:09:22;4.88;;;3.53;;
69327;SDS011;56472;52.114;5.492;2023-03-01T12:12:17;4.28;;;3.70;;
69327;SDS011;56472;52.114;5.492;2023-03-01T12:20:20;6.18;;;3.35;;
69327;SDS011;56472;52.114;5.492;2023-03-01T12:39:42;5.72;;;3.60;;
69327;SDS011;56472;52.114;5.492;2023-03-01T12:45:06;3.88;;;3.45;;
69327;SDS011;56472;52.114;5.492;2023-03-01T12:47:58;5.22;;;3.55;;
69327;SDS011;56472;52.114;5.492;2023-03-01T12:50:41;6.47;;;4.20;;
69327;SDS011;56472;52.114;5.492;2023-03-01T12:53:22;6.47;;;4.20;;
69327;SDS011;56472;52.114;5.492;2023-03-01T12:56:05;9.40;;;3.42;;
69327;SDS011;56472;52.114;5.492;2023-03-01T12:58:35;3.72;;;3.42;;
69327;SDS011;56472;52.114;5.492;2023-03-01T13:04:28;4.30;;;3.83;;
69327;SDS011;56472;52.114;5.492;2023-03-01T13:17:55;3.80;;;3.50;;
69327;SDS011;56472;52.114;5.492;2023-03-01T13:23:25;3.80;;;3.50;;
69327;SDS011;56472;52.114;5.492;2023-03-01T13:33:51;3.92;;;3.60;;
69327;SDS011;56472;52.114;5.492;2023-03-01T13:38:57;5.28;;;3.67;;
69327;SDS011;56472;52.114;5.492;2023-03-01T13:55:51;3.78;;;3.47;;
69327;SDS011;56472;52.114;5.492;2023-03-01T14:00:41;4.00;;;3.60;;
69327;SDS011;56472;52.114;5.492;2023-03-01T14:03:10;3.85;;;3.55;;
69327;SDS011;56472;52.114;5.492;2023-03-01T14:05:43;4.63;;;3.60;;
69327;SDS011;56472;52.114;5.492;2023-03-01T14:08:38;3.63;;;3.38;;
69327;SDS011;56472;52.114;5.492;2023-03-01T14:18:46;4.40;;;3.83;;
69327;SDS011;56472;52.114;5.492;2023-03-01T14:21:26;6.82;;;4.00;;
69327;SDS011;56472;52.114;5.492;2023-03-01T14:23:53;5.50;;;3.75;;
69327;SDS011;56472;52.114;5.492;2023-03-01T14:26:21;5.43;;;3.85;;
69327;SDS011;56472;52.114;5.492;2023-03-01T14:28:49;5.93;;;3.65;;
69327;SDS011;56472;52.114;5.492;2023-03-01T14:31:31;4.00;;;3.60;;
69327;SDS011;56472;52.114;5.492;2023-03-01T14:34:21;4.15;;;3.75;;
69327;SDS011;56472;52.114;5.492;2023-03-01T14:36:50;3.75;;;3.45;;
69327;SDS011;56472;52.114;5.492;2023-03-01T14:39:18;4.15;;;3.75;;
69327;SDS011;56472;52.114;5.492;2023-03-01T14:41:49;4.28;;;3.65;;
69327;SDS011;56472;52.114;5.492;2023-03-01T14:44:21;3.50;;;3.20;;
69327;SDS011;56472;52.114;5.492;2023-03-01T14:46:55;3.67;;;3.38;;
69327;SDS011;56472;52.114;5.492;2023-03-01T14:49:24;4.88;;;3.30;;
69327;SDS011;56472;52.114;5.492;2023-03-01T14:54:41;4.70;;;4.15;;
69327;SDS011;56472;52.114;5.492;2023-03-01T14:57:21;6.78;;;4.10;;
69327;SDS011;56472;52.114;5.492;2023-03-01T14:59:50;4.18;;;3.78;;
69327;SDS011;56472;52.114;5.492;2023-03-01T15:02:24;4.57;;;3.72;;
69327;SDS011;56472;52.114;5.492;2023-03-01T15:04:57;7.32;;;3.75;;
69327;SDS011;56472;52.114;5.492;2023-03-01T15:07:31;5.68;;;3.80;;
69327;SDS011;56472;52.114;5.492;2023-03-01T15:10:02;4.15;;;3.50;;
69327;SDS011;56472;52.114;5.492;2023-03-01T15:14:58;6.40;;;3.88;;
69327;SDS011;56472;52.114;5.492;2023-03-01T15:17:36;6.93;;;4.00;;
69327;SDS011;56472;52.114;5.492;2023-03-01T15:20:06;4.35;;;3.65;;
69327;SDS011;56472;52.114;5.492;2023-03-01T15:22:46;4.47;;;3.45;;
69327;SDS011;56472;52.114;5.492;2023-03-01T15:25:18;5.57;;;3.58;;
69327;SDS011;56472;52.114;5.492;2023-03-01T15:27:48;4.00;;;3.60;;
69327;SDS011;56472;52.114;5.492;2023-03-01T15:30:17;6.13;;;3.55;;
69327;SDS011;56472;52.114;5.492;2023-03-01T15:32:48;3.53;;;3.33;;
69327;SDS011;56472;52.114;5.492;2023-03-01T15:38:24;4.57;;;3.63;;
69327;SDS011;56472;52.114;5.492;2023-03-01T15:41:27;3.83;;;3.45;;
69327;SDS011;56472;52.114;5.492;2023-03-01T15:43:59;3.45;;;3.15;;
69327;SDS011;56472;52.114;5.492;2023-03-01T15:46:40;3.63;;;3.30;;
69327;SDS011;56472;52.114;5.492;2023-03-01T15:49:35;3.85;;;3.55;;
69327;SDS011;56472;52.114;5.492;2023-03-01T15:52:24;5.13;;;3.72;;
69327;SDS011;56472;52.114;5.492;2023-03-01T15:55:02;8.57;;;3.65;;
69327;SDS011;56472;52.114;5.492;2023-03-01T15:57:31;4.88;;;4.10;;
69327;SDS011;56472;52.114;5.492;2023-03-01T15:59:58;3.97;;;3.67;;
69327;SDS011;56472;52.114;5.492;2023-03-01T16:02:25;4.22;;;3.78;;
69327;SDS011;56472;52.114;5.492;2023-03-01T16:04:52;4.63;;;4.18;;
69327;SDS011;56472;52.114;5.492;2023-03-01T16:07:20;5.10;;;4.10;;
69327;SDS011;56472;52.114;5.492;2023-03-01T16:09:47;4.55;;;4.15;;
69327;SDS011;56472;52.114;5.492;2023-03-01T16:12:14;3.90;;;3.60;;
69327;SDS011;56472;52.114;5.492;2023-03-01T16:14:42;4.07;;;3.65;;
69327;SDS011;56472;52.114;5.492;2023-03-01T16:17:10;4.45;;;3.60;;
69327;SDS011;56472;52.114;5.492;2023-03-01T16:19:37;3.70;;;3.35;;
69327;SDS011;56472;52.114;5.492;2023-03-01T16:22:04;4.75;;;4.32;;
69327;SDS011;56472;52.114;5.492;2023-03-01T16:24:31;5.55;;;3.67;;
69327;SDS011;56472;52.114;5.492;2023-03-01T16:26:58;5.40;;;3.78;;
69327;SDS011;56472;52.114;5.492;2023-03-01T16:29:25;4.40;;;3.63;;
69327;SDS011;56472;52.114;5.492;2023-03-01T16:31:52;7.35;;;4.00;;
69327;SDS011;56472;52.114;5.492;2023-03-01T16:34:19;5.65;;;3.90;;
69327;SDS011;56472;52.114;5.492;2023-03-01T16:36:48;5.15;;;4.45;;
69327;SDS011;56472;52.114;5.492;2023-03-01T16:39:15;7.72;;;4.72;;
69327;SDS011;56472;52.114;5.492;2023-03-01T16:41:43;4.53;;;4.13;;
69327;SDS011;56472;52.114;5.492;2023-03-01T16:44:10;4.60;;;4.28;;
69327;SDS011;56472;52.114;5.492;2023-03-01T16:46:37;6.57;;;4.57;;
69327;SDS011;56472;52.114;5.492;2023-03-01T16:49:03;5.95;;;4.90;;
69327;SDS011;56472;52.114;5.492;2023-03-01T16:51:30;7.88;;;4.55;;
69327;SDS011;56472;52.114;5.492;2023-03-01T16:54:00;7.63;;;4.70;;
69327;SDS011;56472;52.114;5.492;2023-03-01T16:56:28;9.35;;;4.53;;
69327;SDS011;56472;52.114;5.492;2023-03-01T16:58:56;5.15;;;4.68;;
69327;SDS011;56472;52.114;5.492;2023-03-01T17:01:23;6.40;;;5.00;;
69327;SDS011;56472;52.114;5.492;2023-03-01T17:03:52;5.13;;;4.40;;
69327;SDS011;56472;52.114;5.492;2023-03-01T17:06:19;5.10;;;4.43;;
69327;SDS011;56472;52.114;5.492;2023-03-01T17:08:48;4.30;;;3.95;;
69327;SDS011;56472;52.114;5.492;2023-03-01T17:11:16;7.03;;;4.50;;
69327;SDS011;56472;52.114;5.492;2023-03-01T17:13:44;4.75;;;4.30;;
69327;SDS011;56472;52.114;5.492;2023-03-01T17:16:13;8.23;;;4.70;;
69327;SDS011;56472;52.114;5.492;2023-03-01T17:18:42;7.80;;;4.90;;
69327;SDS011;56472;52.114;5.492;2023-03-01T17:21:10;5.28;;;4.57;;
69327;SDS011;56472;52.114;5.492;2023-03-01T17:23:38;10.27;;;4.40;;
69327;SDS011;56472;52.114;5.492;2023-03-01T17:26:07;6.28;;;4.90;;
69327;SDS011;56472;52.114;5.492;2023-03-01T17:28:34;6.53;;;4.50;;